CheckWX is a tool to help pilots better visualize weather data.  It is not intended as a substitute for an official pre-flight weather briefing.

13:13:20 UTC

ESPA TAF
Luleå Airport
Luleå, Sweden
TAF ESPA 130830Z 1309/1318 19008KT 9999 BKN006 PROB40 1309/1315 SCT006 BKN030

Dec-13@
09:00 UTC

Dec-13 @ 09:00 UTC

Dec-13@
18:00 UTC

Dec-13 @ 18:00 UTC

TAF ESPA 130830Z 1309/1318 19008KT 9999 BKN006
Wind
  • 190° at 8 KTS
Cloud Levels
  • Broken at 600' AGL

Dec-13@
09:00 UTC

Dec-13 @ 09:00 UTC

Dec-13@
15:00 UTC

Dec-13 @ 15:00 UTC

PROB40 1309/1315 SCT006 BKN030

Probable - 40% Likelihood

Probable - 40% Likelihood during this time.

Cloud Levels
  • Scattered at 600' AGL
  • Broken at 3,000' AGL